sensor_id;sensor_type;location;lat;lon;timestamp;pressure;altitude;pressure_sealevel;temperature
26158;BMP280;67284;44.782;10.282;2023-08-30T00:02:16;99747.75;;;22.63
26158;BMP280;67284;44.782;10.282;2023-08-30T00:07:08;99747.16;;;22.59
26158;BMP280;67284;44.782;10.282;2023-08-30T00:12:03;99751.53;;;22.59
26158;BMP280;67284;44.782;10.282;2023-08-30T00:16:55;99753.44;;;22.57
26158;BMP280;67284;44.782;10.282;2023-08-30T00:21:46;99753.16;;;22.49
26158;BMP280;67284;44.782;10.282;2023-08-30T00:26:39;99755.88;;;22.48
26158;BMP280;67284;44.782;10.282;2023-08-30T00:31:31;99761.03;;;22.49
26158;BMP280;67284;44.782;10.282;2023-08-30T00:36:22;99783.44;;;22.53
26158;BMP280;67284;44.782;10.282;2023-08-30T00:41:14;99806.09;;;22.54
26158;BMP280;67284;44.782;10.282;2023-08-30T00:46:06;99805.34;;;22.52
26158;BMP280;67284;44.782;10.282;2023-08-30T00:50:58;99771.72;;;22.46
26158;BMP280;67284;44.782;10.282;2023-08-30T00:55:50;99780.75;;;22.42
26158;BMP280;67284;44.782;10.282;2023-08-30T01:00:42;99781.72;;;22.41
26158;BMP280;67284;44.782;10.282;2023-08-30T01:05:34;99789.59;;;22.41
26158;BMP280;67284;44.782;10.282;2023-08-30T01:11:02;99787.91;;;22.40
26158;BMP280;67284;44.782;10.282;2023-08-30T01:15:55;99788.94;;;22.38
26158;BMP280;67284;44.782;10.282;2023-08-30T01:20:48;99809.31;;;22.34
26158;BMP280;67284;44.782;10.282;2023-08-30T01:30:52;99810.34;;;22.32
26158;BMP280;67284;44.782;10.282;2023-08-30T01:35:46;99809.50;;;22.31
26158;BMP280;67284;44.782;10.282;2023-08-30T01:40:41;99807.84;;;22.30
26158;BMP280;67284;44.782;10.282;2023-08-30T01:45:35;99793.06;;;22.29
26158;BMP280;67284;44.782;10.282;2023-08-30T01:50:27;99800.94;;;22.29
26158;BMP280;67284;44.782;10.282;2023-08-30T01:55:20;99793.06;;;22.29
26158;BMP280;67284;44.782;10.282;2023-08-30T02:00:13;99792.34;;;22.27
26158;BMP280;67284;44.782;10.282;2023-08-30T02:05:08;99793.19;;;22.28
26158;BMP280;67284;44.782;10.282;2023-08-30T02:10:13;99781.88;;;22.27
26158;BMP280;67284;44.782;10.282;2023-08-30T02:15:07;99788.75;;;22.28
26158;BMP280;67284;44.782;10.282;2023-08-30T02:19:59;99775.78;;;22.27
26158;BMP280;67284;44.782;10.282;2023-08-30T02:24:51;99778.38;;;22.27
26158;BMP280;67284;44.782;10.282;2023-08-30T02:29:44;99775.78;;;22.27
26158;BMP280;67284;44.782;10.282;2023-08-30T02:34:36;99774.94;;;22.26
26158;BMP280;67284;44.782;10.282;2023-08-30T02:39:29;99773.25;;;22.25
26158;BMP280;67284;44.782;10.282;2023-08-30T02:44:21;99768.13;;;22.24
26158;BMP280;67284;44.782;10.282;2023-08-30T02:49:13;99774.22;;;22.24
26158;BMP280;67284;44.782;10.282;2023-08-30T02:54:05;99774.13;;;22.26
26158;BMP280;67284;44.782;10.282;2023-08-30T02:58:57;99774.94;;;22.26
26158;BMP280;67284;44.782;10.282;2023-08-30T03:03:48;99774.00;;;22.27
26158;BMP280;67284;44.782;10.282;2023-08-30T03:08:42;99768.78;;;22.27
26158;BMP280;67284;44.782;10.282;2023-08-30T03:13:35;99769.47;;;22.29
26158;BMP280;67284;44.782;10.282;2023-08-30T03:18:28;99767.78;;;22.28
26158;BMP280;67284;44.782;10.282;2023-08-30T03:23:20;99769.47;;;22.29
26158;BMP280;67284;44.782;10.282;2023-08-30T03:28:12;99764.25;;;22.29
26158;BMP280;67284;44.782;10.282;2023-08-30T03:33:04;99761.63;;;22.29
26158;BMP280;67284;44.782;10.282;2023-08-30T03:37:56;99751.03;;;22.31
26158;BMP280;67284;44.782;10.282;2023-08-30T03:42:48;99766.63;;;22.32
26158;BMP280;67284;44.782;10.282;2023-08-30T03:47:40;99768.31;;;22.33
26158;BMP280;67284;44.782;10.282;2023-08-30T03:52:32;99771.66;;;22.35
26158;BMP280;67284;44.782;10.282;2023-08-30T03:57:23;99769.03;;;22.35
26158;BMP280;67284;44.782;10.282;2023-08-30T04:02:15;99772.50;;;22.36
26158;BMP280;67284;44.782;10.282;2023-08-30T04:07:07;99771.78;;;22.34
26158;BMP280;67284;44.782;10.282;2023-08-30T04:11:59;99777.00;;;22.34
26158;BMP280;67284;44.782;10.282;2023-08-30T04:16:52;99771.88;;;22.32
26158;BMP280;67284;44.782;10.282;2023-08-30T04:21:44;99777.13;;;22.32
26158;BMP280;67284;44.782;10.282;2023-08-30T04:26:35;99781.53;;;22.32
26158;BMP280;67284;44.782;10.282;2023-08-30T04:31:27;99785.84;;;22.33
26158;BMP280;67284;44.782;10.282;2023-08-30T04:36:19;99783.22;;;22.33
26158;BMP280;67284;44.782;10.282;2023-08-30T04:41:11;99783.22;;;22.33
26158;BMP280;67284;44.782;10.282;2023-08-30T04:46:03;99780.59;;;22.33
26158;BMP280;67284;44.782;10.282;2023-08-30T04:51:02;99781.41;;;22.33
26158;BMP280;67284;44.782;10.282;2023-08-30T04:55:57;99782.25;;;22.34
26158;BMP280;67284;44.782;10.282;2023-08-30T05:00:49;99782.38;;;22.32
26158;BMP280;67284;44.782;10.282;2023-08-30T05:05:45;99789.28;;;22.33
26158;BMP280;67284;44.782;10.282;2023-08-30T05:10:39;99797.16;;;22.33
26158;BMP280;67284;44.782;10.282;2023-08-30T05:15:31;99803.31;;;22.32
26158;BMP280;67284;44.782;10.282;2023-08-30T05:20:23;99803.22;;;22.34
26158;BMP280;67284;44.782;10.282;2023-08-30T05:25:15;99812.66;;;22.36
26158;BMP280;67284;44.782;10.282;2023-08-30T05:30:07;99809.91;;;22.38
26158;BMP280;67284;44.782;10.282;2023-08-30T05:35:00;99818.53;;;22.40
26158;BMP280;67284;44.782;10.282;2023-08-30T05:40:03;99827.22;;;22.40
26158;BMP280;67284;44.782;10.282;2023-08-30T05:44:55;99825.19;;;22.44
26158;BMP280;67284;44.782;10.282;2023-08-30T05:49:47;99830.22;;;22.47
26158;BMP280;67284;44.782;10.282;2023-08-30T05:54:39;99838.06;;;22.47
26158;BMP280;67284;44.782;10.282;2023-08-30T05:59:32;99848.69;;;22.45
26158;BMP280;67284;44.782;10.282;2023-08-30T06:04:23;99851.41;;;22.44
26158;BMP280;67284;44.782;10.282;2023-08-30T06:09:15;99850.16;;;22.37
26158;BMP280;67284;44.782;10.282;2023-08-30T06:14:08;99843.28;;;22.36
26158;BMP280;67284;44.782;10.282;2023-08-30T06:19:00;99851.84;;;22.38
26158;BMP280;67284;44.782;10.282;2023-08-30T06:23:52;99852.59;;;22.40
26158;BMP280;67284;44.782;10.282;2023-08-30T06:28:44;99862.09;;;22.41
26158;BMP280;67284;44.782;10.282;2023-08-30T06:33:52;99869.97;;;22.41
26158;BMP280;67284;44.782;10.282;2023-08-30T06:38:44;99875.00;;;22.44
26158;BMP280;67284;44.782;10.282;2023-08-30T06:43:37;99887.06;;;22.46
26158;BMP280;67284;44.782;10.282;2023-08-30T06:48:28;99879.41;;;22.43
26158;BMP280;67284;44.782;10.282;2023-08-30T06:53:20;99888.22;;;22.42
26158;BMP280;67284;44.782;10.282;2023-08-30T06:58:12;99883.72;;;22.44
26158;BMP280;67284;44.782;10.282;2023-08-30T07:03:04;99889.66;;;22.46
26158;BMP280;67284;44.782;10.282;2023-08-30T07:07:56;99893.03;;;22.48
26158;BMP280;67284;44.782;10.282;2023-08-30T07:12:48;99899.94;;;22.49
26158;BMP280;67284;44.782;10.282;2023-08-30T07:17:40;99905.19;;;22.49
26158;BMP280;67284;44.782;10.282;2023-08-30T07:22:36;99906.34;;;22.45
26158;BMP280;67284;44.782;10.282;2023-08-30T07:27:28;99911.38;;;22.48
26158;BMP280;67284;44.782;10.282;2023-08-30T07:32:22;99900.69;;;22.51
26158;BMP280;67284;44.782;10.282;2023-08-30T07:37:18;99897.09;;;22.52
26158;BMP280;67284;44.782;10.282;2023-08-30T07:42:10;99896.16;;;22.53
26158;BMP280;67284;44.782;10.282;2023-08-30T07:47:02;99902.16;;;22.55
26158;BMP280;67284;44.782;10.282;2023-08-30T07:51:54;99913.69;;;22.52
26158;BMP280;67284;44.782;10.282;2023-08-30T07:56:46;99916.41;;;22.51
26158;BMP280;67284;44.782;10.282;2023-08-30T08:01:38;99917.47;;;22.49
26158;BMP280;67284;44.782;10.282;2023-08-30T08:06:30;99914.63;;;22.51
26158;BMP280;67284;44.782;10.282;2023-08-30T08:11:22;99919.84;;;22.51
26158;BMP280;67284;44.782;10.282;2023-08-30T08:16:14;99917.13;;;22.53
26158;BMP280;67284;44.782;10.282;2023-08-30T08:21:07;99917.88;;;22.55
26158;BMP280;67284;44.782;10.282;2023-08-30T08:26:01;99919.53;;;22.56
26158;BMP280;67284;44.782;10.282;2023-08-30T08:30:54;99931.81;;;22.55
26158;BMP280;67284;44.782;10.282;2023-08-30T08:35:48;99931.69;;;22.57
26158;BMP280;67284;44.782;10.282;2023-08-30T08:40:40;99933.38;;;22.58
26158;BMP280;67284;44.782;10.282;2023-08-30T08:45:37;99930.66;;;22.59
26158;BMP280;67284;44.782;10.282;2023-08-30T08:50:29;99941.97;;;22.60
26158;BMP280;67284;44.782;10.282;2023-08-30T08:55:22;99939.47;;;22.58
26158;BMP280;67284;44.782;10.282;2023-08-30T09:00:17;99950.56;;;22.62
26158;BMP280;67284;44.782;10.282;2023-08-30T09:05:10;99937.25;;;22.65
26158;BMP280;67284;44.782;10.282;2023-08-30T09:10:02;99947.63;;;22.66
26158;BMP280;67284;44.782;10.282;2023-08-30T09:14:55;99944.16;;;22.66
26158;BMP280;67284;44.782;10.282;2023-08-30T09:19:47;99942.28;;;22.68
26158;BMP280;67284;44.782;10.282;2023-08-30T09:24:40;99948.13;;;22.71
26158;BMP280;67284;44.782;10.282;2023-08-30T09:29:32;99940.16;;;22.73
26158;BMP280;67284;44.782;10.282;2023-08-30T09:34:25;99942.78;;;22.73
26158;BMP280;67284;44.782;10.282;2023-08-30T09:39:17;99943.53;;;22.75
26158;BMP280;67284;44.782;10.282;2023-08-30T09:49:05;99949.25;;;22.80
26158;BMP280;67284;44.782;10.282;2023-08-30T09:53:58;99942.63;;;22.87
26158;BMP280;67284;44.782;10.282;2023-08-30T09:58:58;99951.97;;;22.91
26158;BMP280;67284;44.782;10.282;2023-08-30T10:03:51;99944.81;;;22.93
26158;BMP280;67284;44.782;10.282;2023-08-30T10:08:45;99943.56;;;22.98
26158;BMP280;67284;44.782;10.282;2023-08-30T10:13:38;99941.81;;;22.99
26158;BMP280;67284;44.782;10.282;2023-08-30T10:18:32;99942.53;;;23.01
26158;BMP280;67284;44.782;10.282;2023-08-30T10:23:26;99945.66;;;23.05
26158;BMP280;67284;44.782;10.282;2023-08-30T10:28:21;99948.78;;;23.10
26158;BMP280;67284;44.782;10.282;2023-08-30T10:33:15;99946.69;;;23.15
26158;BMP280;67284;44.782;10.282;2023-08-30T10:38:09;99945.63;;;23.18
26158;BMP280;67284;44.782;10.282;2023-08-30T10:43:02;99934.78;;;23.22
26158;BMP280;67284;44.782;10.282;2023-08-30T10:47:56;99921.44;;;23.25
26158;BMP280;67284;44.782;10.282;2023-08-30T10:52:55;99915.03;;;23.29
26158;BMP280;67284;44.782;10.282;2023-08-30T10:57:58;99922.56;;;23.34
26158;BMP280;67284;44.782;10.282;2023-08-30T11:02:51;99900.00;;;23.31
26158;BMP280;67284;44.782;10.282;2023-08-30T11:07:44;99903.13;;;23.36
26158;BMP280;67284;44.782;10.282;2023-08-30T11:12:36;99901.34;;;23.37
26158;BMP280;67284;44.782;10.282;2023-08-30T11:17:28;99887.97;;;23.40
26158;BMP280;67284;44.782;10.282;2023-08-30T11:22:20;99892.06;;;23.44
26158;BMP280;67284;44.782;10.282;2023-08-30T11:27:12;99896.00;;;23.49
26158;BMP280;67284;44.782;10.282;2023-08-30T11:32:07;99887.41;;;23.47
26158;BMP280;67284;44.782;10.282;2023-08-30T11:36:59;99878.34;;;23.51
26158;BMP280;67284;44.782;10.282;2023-08-30T11:41:51;99870.25;;;23.54
26158;BMP280;67284;44.782;10.282;2023-08-30T11:46:45;99867.88;;;23.62
26158;BMP280;67284;44.782;10.282;2023-08-30T11:51:38;99863.88;;;23.69
26158;BMP280;67284;44.782;10.282;2023-08-30T11:56:30;99854.56;;;23.76
26158;BMP280;67284;44.782;10.282;2023-08-30T12:01:22;99858.25;;;23.73
26158;BMP280;67284;44.782;10.282;2023-08-30T12:06:14;99865.31;;;23.73
26158;BMP280;67284;44.782;10.282;2023-08-30T12:11:19;99859.59;;;23.79
26158;BMP280;67284;44.782;10.282;2023-08-30T12:16:16;99853.75;;;23.75
26158;BMP280;67284;44.782;10.282;2023-08-30T12:21:09;99851.59;;;23.80
26158;BMP280;67284;44.782;10.282;2023-08-30T12:26:03;99846.22;;;23.82
26158;BMP280;67284;44.782;10.282;2023-08-30T12:30:58;99854.59;;;23.87
26158;BMP280;67284;44.782;10.282;2023-08-30T12:35:52;99847.31;;;23.90
26158;BMP280;67284;44.782;10.282;2023-08-30T12:40:45;99857.81;;;23.90
26158;BMP280;67284;44.782;10.282;2023-08-30T12:45:38;99850.28;;;23.86
26158;BMP280;67284;44.782;10.282;2023-08-30T12:50:31;99840.84;;;23.83
26158;BMP280;67284;44.782;10.282;2023-08-30T12:55:23;99848.41;;;23.88
26158;BMP280;67284;44.782;10.282;2023-08-30T13:00:15;99852.56;;;23.90
26158;BMP280;67284;44.782;10.282;2023-08-30T13:05:07;99858.78;;;23.89
26158;BMP280;67284;44.782;10.282;2023-08-30T13:09:59;99856.88;;;23.91
26158;BMP280;67284;44.782;10.282;2023-08-30T13:14:51;99842.91;;;23.91
26158;BMP280;67284;44.782;10.282;2023-08-30T13:19:43;99836.22;;;23.87
26158;BMP280;67284;44.782;10.282;2023-08-30T13:24:36;99817.09;;;23.85
26158;BMP280;67284;44.782;10.282;2023-08-30T13:29:28;99824.97;;;23.85
26158;BMP280;67284;44.782;10.282;2023-08-30T13:34:20;99831.19;;;23.84
26158;BMP280;67284;44.782;10.282;2023-08-30T13:39:12;99831.44;;;23.81
26158;BMP280;67284;44.782;10.282;2023-08-30T13:44:04;99831.44;;;23.81
26158;BMP280;67284;44.782;10.282;2023-08-30T13:48:56;99841.94;;;23.81
26158;BMP280;67284;44.782;10.282;2023-08-30T13:53:48;99840.50;;;23.77
26158;BMP280;67284;44.782;10.282;2023-08-30T13:58:40;99847.88;;;23.72
26158;BMP280;67284;44.782;10.282;2023-08-30T14:03:32;99852.06;;;23.74
26158;BMP280;67284;44.782;10.282;2023-08-30T14:08:24;99850.78;;;23.80
26158;BMP280;67284;44.782;10.282;2023-08-30T14:13:16;99854.56;;;23.76
26158;BMP280;67284;44.782;10.282;2023-08-30T14:18:08;99852.19;;;23.73
26158;BMP280;67284;44.782;10.282;2023-08-30T14:23:00;99859.25;;;23.72
26158;BMP280;67284;44.782;10.282;2023-08-30T14:27:52;99875.00;;;23.72
26158;BMP280;67284;44.782;10.282;2023-08-30T14:32:44;99879.50;;;23.70
26158;BMP280;67284;44.782;10.282;2023-08-30T14:37:36;99901.47;;;23.69
26158;BMP280;67284;44.782;10.282;2023-08-30T14:42:29;99911.16;;;23.69
26158;BMP280;67284;44.782;10.282;2023-08-30T14:47:21;99907.91;;;23.65
26158;BMP280;67284;44.782;10.282;2023-08-30T14:52:14;99911.56;;;23.63
26158;BMP280;67284;44.782;10.282;2023-08-30T14:57:07;99908.22;;;23.61
26158;BMP280;67284;44.782;10.282;2023-08-30T15:01:58;99917.19;;;23.58
26158;BMP280;67284;44.782;10.282;2023-08-30T15:06:50;99914.56;;;23.58
26158;BMP280;67284;44.782;10.282;2023-08-30T15:11:44;99922.63;;;23.55
26158;BMP280;67284;44.782;10.282;2023-08-30T15:16:36;99918.47;;;23.53
26158;BMP280;67284;44.782;10.282;2023-08-30T15:21:27;99924.78;;;23.51
26158;BMP280;67284;44.782;10.282;2023-08-30T15:26:19;99923.94;;;23.50
26158;BMP280;67284;44.782;10.282;2023-08-30T15:31:13;99928.69;;;23.45
26158;BMP280;67284;44.782;10.282;2023-08-30T15:36:05;99926.28;;;23.42
26158;BMP280;67284;44.782;10.282;2023-08-30T15:40:57;99926.28;;;23.42
26158;BMP280;67284;44.782;10.282;2023-08-30T15:45:49;99924.50;;;23.43
26158;BMP280;67284;44.782;10.282;2023-08-30T15:50:41;99928.91;;;23.42
26158;BMP280;67284;44.782;10.282;2023-08-30T15:55:33;99929.75;;;23.43
26158;BMP280;67284;44.782;10.282;2023-08-30T16:00:25;99936.69;;;23.44
26158;BMP280;67284;44.782;10.282;2023-08-30T16:05:17;99944.31;;;23.47
26158;BMP280;67284;44.782;10.282;2023-08-30T16:10:09;99939.81;;;23.49
26158;BMP280;67284;44.782;10.282;2023-08-30T16:15:01;99947.56;;;23.50
26158;BMP280;67284;44.782;10.282;2023-08-30T16:19:53;99950.19;;;23.50
26158;BMP280;67284;44.782;10.282;2023-08-30T16:24:45;99945.66;;;23.52
26158;BMP280;67284;44.782;10.282;2023-08-30T16:29:37;99949.22;;;23.51
26158;BMP280;67284;44.782;10.282;2023-08-30T16:34:29;99948.41;;;23.51
26158;BMP280;67284;44.782;10.282;2023-08-30T16:39:21;99939.81;;;23.49
26158;BMP280;67284;44.782;10.282;2023-08-30T16:44:12;99938.97;;;23.48
26158;BMP280;67284;44.782;10.282;2023-08-30T16:49:05;99944.44;;;23.45
26158;BMP280;67284;44.782;10.282;2023-08-30T16:53:57;99951.50;;;23.45
26158;BMP280;67284;44.782;10.282;2023-08-30T16:58:49;99955.16;;;23.42
26158;BMP280;67284;44.782;10.282;2023-08-30T17:03:41;99957.91;;;23.41
26158;BMP280;67284;44.782;10.282;2023-08-30T17:08:33;99962.28;;;23.40
26158;BMP280;67284;44.782;10.282;2023-08-30T17:13:25;99972.81;;;23.40
26158;BMP280;67284;44.782;10.282;2023-08-30T17:18:17;99968.53;;;23.39
26158;BMP280;67284;44.782;10.282;2023-08-30T17:23:09;99969.47;;;23.38
26158;BMP280;67284;44.782;10.282;2023-08-30T17:28:00;99977.44;;;23.37
26158;BMP280;67284;44.782;10.282;2023-08-30T17:32:52;99979.25;;;23.36
26158;BMP280;67284;44.782;10.282;2023-08-30T17:37:44;99983.63;;;23.36
26158;BMP280;67284;44.782;10.282;2023-08-30T17:42:36;99986.38;;;23.34
26158;BMP280;67284;44.782;10.282;2023-08-30T17:47:43;99990.69;;;23.35
26158;BMP280;67284;44.782;10.282;2023-08-30T17:52:34;99985.44;;;23.35
26158;BMP280;67284;44.782;10.282;2023-08-30T17:57:26;99988.06;;;23.35
26158;BMP280;67284;44.782;10.282;2023-08-30T18:02:18;100000.25;;;23.36
26158;BMP280;67284;44.782;10.282;2023-08-30T18:07:10;99999.50;;;23.34
26158;BMP280;67284;44.782;10.282;2023-08-30T18:12:03;100016.31;;;23.32
26158;BMP280;67284;44.782;10.282;2023-08-30T18:16:55;100015.47;;;23.31
26158;BMP280;67284;44.782;10.282;2023-08-30T18:21:47;100020.72;;;23.31
26158;BMP280;67284;44.782;10.282;2023-08-30T18:26:39;100030.28;;;23.32
26158;BMP280;67284;44.782;10.282;2023-08-30T18:31:32;100033.84;;;23.31
26158;BMP280;67284;44.782;10.282;2023-08-30T18:36:24;100038.38;;;23.29
26158;BMP280;67284;44.782;10.282;2023-08-30T18:41:16;100050.53;;;23.30
26158;BMP280;67284;44.782;10.282;2023-08-30T18:46:10;100055.78;;;23.30
26158;BMP280;67284;44.782;10.282;2023-08-30T18:51:02;100073.56;;;23.27
26158;BMP280;67284;44.782;10.282;2023-08-30T18:55:54;100072.81;;;23.25
26158;BMP280;67284;44.782;10.282;2023-08-30T19:00:48;100078.06;;;23.25
26158;BMP280;67284;44.782;10.282;2023-08-30T19:05:40;100087.72;;;23.24
26158;BMP280;67284;44.782;10.282;2023-08-30T19:10:32;100083.53;;;23.22
26158;BMP280;67284;44.782;10.282;2023-08-30T19:15:24;100094.13;;;23.20
26158;BMP280;67284;44.782;10.282;2023-08-30T19:20:16;100097.81;;;23.18
26158;BMP280;67284;44.782;10.282;2023-08-30T19:25:08;100104.00;;;23.17
26158;BMP280;67284;44.782;10.282;2023-08-30T19:30:06;100104.44;;;23.11
26158;BMP280;67284;44.782;10.282;2023-08-30T19:34:58;100102.88;;;23.08
26158;BMP280;67284;44.782;10.282;2023-08-30T19:39:50;100109.88;;;23.08
26158;BMP280;67284;44.782;10.282;2023-08-30T19:44:42;100115.25;;;23.06
26158;BMP280;67284;44.782;10.282;2023-08-30T19:49:34;100116.00;;;23.08
26158;BMP280;67284;44.782;10.282;2023-08-30T19:54:26;100118.63;;;23.08
26158;BMP280;67284;44.782;10.282;2023-08-30T19:59:17;100117.75;;;23.08
26158;BMP280;67284;44.782;10.282;2023-08-30T20:04:09;100128.69;;;23.02
26158;BMP280;67284;44.782;10.282;2023-08-30T20:09:01;100131.41;;;23.01
26158;BMP280;67284;44.782;10.282;2023-08-30T20:13:53;100129.72;;;23.00
26158;BMP280;67284;44.782;10.282;2023-08-30T20:18:46;100130.91;;;22.96
26158;BMP280;67284;44.782;10.282;2023-08-30T20:23:38;100130.97;;;22.94
26158;BMP280;67284;44.782;10.282;2023-08-30T20:28:30;100137.06;;;22.95
26158;BMP280;67284;44.782;10.282;2023-08-30T20:33:22;100142.50;;;22.92
26158;BMP280;67284;44.782;10.282;2023-08-30T20:38:14;100145.47;;;22.87
26158;BMP280;67284;44.782;10.282;2023-08-30T20:43:07;100147.31;;;22.85
26158;BMP280;67284;44.782;10.282;2023-08-30T20:48:02;100135.34;;;22.81
26158;BMP280;67284;44.782;10.282;2023-08-30T20:52:57;100146.94;;;22.79
26158;BMP280;67284;44.782;10.282;2023-08-30T20:57:48;100151.41;;;22.77
26158;BMP280;67284;44.782;10.282;2023-08-30T21:02:41;100147.97;;;22.76
26158;BMP280;67284;44.782;10.282;2023-08-30T21:07:33;100162.84;;;22.76
26158;BMP280;67284;44.782;10.282;2023-08-30T21:12:25;100156.16;;;22.72
26158;BMP280;67284;44.782;10.282;2023-08-30T21:17:17;100168.50;;;22.70
26158;BMP280;67284;44.782;10.282;2023-08-30T21:22:09;100161.56;;;22.69
26158;BMP280;67284;44.782;10.282;2023-08-30T21:27:01;100176.47;;;22.68
26158;BMP280;67284;44.782;10.282;2023-08-30T21:31:53;100168.81;;;22.65
26158;BMP280;67284;44.782;10.282;2023-08-30T21:36:45;100175.84;;;22.65
26158;BMP280;67284;44.782;10.282;2023-08-30T21:41:36;100171.00;;;22.59
26158;BMP280;67284;44.782;10.282;2023-08-30T21:46:28;100173.63;;;22.59
26158;BMP280;67284;44.782;10.282;2023-08-30T21:51:21;100177.94;;;22.60
26158;BMP280;67284;44.782;10.282;2023-08-30T21:56:12;100180.44;;;22.61
26158;BMP280;67284;44.782;10.282;2023-08-30T22:01:04;100190.84;;;22.63
26158;BMP280;67284;44.782;10.282;2023-08-30T22:06:00;100191.03;;;22.60
26158;BMP280;67284;44.782;10.282;2023-08-30T22:10:52;100184.22;;;22.57
26158;BMP280;67284;44.782;10.282;2023-08-30T22:15:44;100189.56;;;22.56
26158;BMP280;67284;44.782;10.282;2023-08-30T22:20:36;100195.75;;;22.55
26158;BMP280;67284;44.782;10.282;2023-08-30T22:25:28;100187.97;;;22.53
26158;BMP280;67284;44.782;10.282;2023-08-30T22:30:20;100202.88;;;22.53
26158;BMP280;67284;44.782;10.282;2023-08-30T22:35:12;100201.38;;;22.49
26158;BMP280;67284;44.782;10.282;2023-08-30T22:40:07;100206.72;;;22.48
26158;BMP280;67284;44.782;10.282;2023-08-30T22:45:04;100204.97;;;22.48
26158;BMP280;67284;44.782;10.282;2023-08-30T22:49:56;100211.88;;;22.49
26158;BMP280;67284;44.782;10.282;2023-08-30T22:54:48;100212.84;;;22.48
26158;BMP280;67284;44.782;10.282;2023-08-30T22:59:39;100224.03;;;22.50
26158;BMP280;67284;44.782;10.282;2023-08-30T23:04:31;100209.34;;;22.48
26158;BMP280;67284;44.782;10.282;2023-08-30T23:09:25;100220.03;;;22.45
26158;BMP280;67284;44.782;10.282;2023-08-30T23:14:18;100216.97;;;22.38
26158;BMP280;67284;44.782;10.282;2023-08-30T23:19:12;100217.16;;;22.35
26158;BMP280;67284;44.782;10.282;2023-08-30T23:24:04;100226.91;;;22.33
26158;BMP280;67284;44.782;10.282;2023-08-30T23:28:57;100230.47;;;22.32
26158;BMP280;67284;44.782;10.282;2023-08-30T23:33:48;100230.28;;;22.35
26158;BMP280;67284;44.782;10.282;2023-08-30T23:38:41;100228.50;;;22.36
26158;BMP280;67284;44.782;10.282;2023-08-30T23:43:38;100231.97;;;22.36
26158;BMP280;67284;44.782;10.282;2023-08-30T23:48:29;100237.41;;;22.33
26158;BMP280;67284;44.782;10.282;2023-08-30T23:53:21;100239.81;;;22.36
26158;BMP280;67284;44.782;10.282;2023-08-30T23:58:13;100244.34;;;22.34
